Time;durP1;ratioP1;P1;durP2;ratioP2;P2;SDS_P1;SDS_P2;PMS_P1;PMS_P2;Temp;Humidity;BMP_temperature;BMP_pressure;BME280_temperature;BME280_humidity;BME280_pressure;Samples;Min_cycle;Max_cycle;Signal;HPM_P1;HPM_P2
2021/08/07 00:00:50;;;;;;;2.13;1.13;;;20.10;86.10;;;;;;5071442;28;20029;-66
2021/08/07 00:03:16;;;;;;;2.50;1.10;;;20.10;86.20;;;;;;5070957;28;20024;-66
2021/08/07 00:05:44;;;;;;;3.15;1.10;;;20.10;86.20;;;;;;5071015;28;20064;-67
2021/08/07 00:08:10;;;;;;;1.85;1.10;;;20.10;86.20;;;;;;5053221;28;20032;-66
2021/08/07 00:10:36;;;;;;;1.88;1.00;;;20.10;86.40;;;;;;5071711;28;20433;-66
2021/08/07 00:13:01;;;;;;;2.05;1.00;;;20.10;86.50;;;;;;5075223;28;20028;-66
2021/08/07 00:15:28;;;;;;;2.08;1.20;;;20.10;86.50;;;;;;5074651;28;20127;-67
2021/08/07 00:17:53;;;;;;;2.35;1.20;;;20.10;86.40;;;;;;5075068;28;20530;-66
2021/08/07 00:20:19;;;;;;;1.92;1.00;;;20.00;86.40;;;;;;5075140;28;20052;-66
2021/08/07 00:22:44;;;;;;;1.98;1.17;;;20.00;86.50;;;;;;5075065;28;20617;-68
2021/08/07 00:25:11;;;;;;;3.95;1.30;;;20.00;86.50;;;;;;5074660;28;20036;-66
2021/08/07 00:27:37;;;;;;;1.77;0.95;;;20.00;86.60;;;;;;5074883;28;20103;-67
2021/08/07 00:30:04;;;;;;;2.92;1.10;;;20.00;86.70;;;;;;5074783;28;20096;-66
2021/08/07 00:32:29;;;;;;;2.17;1.20;;;20.00;86.70;;;;;;5074795;28;20474;-66
2021/08/07 00:34:55;;;;;;;2.50;1.00;;;20.00;86.70;;;;;;5074772;28;20033;-67
2021/08/07 00:37:20;;;;;;;3.80;1.15;;;20.00;86.70;;;;;;5074769;28;20027;-66
2021/08/07 00:39:46;;;;;;;3.47;1.30;;;20.00;86.70;;;;;;5056783;28;20389;-66
2021/08/07 00:42:11;;;;;;;2.95;1.02;;;20.00;86.50;;;;;;5074730;28;20024;-66
2021/08/07 00:44:37;;;;;;;4.07;1.50;;;20.00;86.80;;;;;;5074270;28;20109;-67
2021/08/07 00:47:03;;;;;;;2.00;1.00;;;20.00;86.80;;;;;;5056615;28;20020;-66
2021/08/07 00:49:28;;;;;;;3.63;1.38;;;20.00;86.90;;;;;;5056515;28;20088;-67
2021/08/07 00:51:54;;;;;;;2.13;1.20;;;20.00;87.00;;;;;;5036640;28;20021;-66
2021/08/07 00:54:21;;;;;;;2.13;1.02;;;19.90;86.80;;;;;;5068337;28;20027;-66
2021/08/07 00:56:47;;;;;;;2.08;1.20;;;19.90;86.90;;;;;;5074438;28;20473;-66
2021/08/07 00:59:12;;;;;;;2.47;1.23;;;19.90;87.00;;;;;;5056384;28;20060;-67
2021/08/07 01:02:00;;;;;;;3.13;1.30;;;19.90;87.10;;;;;;5074613;28;20024;-67
2021/08/07 01:04:28;;;;;;;1.83;1.15;;;19.90;87.00;;;;;;5055559;28;20032;-66
2021/08/07 01:07:05;;;;;;;2.17;1.17;;;19.90;87.10;;;;;;5074226;28;20032;-66
2021/08/07 01:09:46;;;;;;;1.95;1.00;;;19.90;87.10;;;;;;5074144;28;20101;-67
2021/08/07 01:12:40;;;;;;;2.15;1.20;;;19.90;87.10;;;;;;5056264;28;20021;-66
2021/08/07 01:15:08;;;;;;;2.33;1.20;;;19.90;87.10;;;;;;5055633;28;20054;-67
2021/08/07 01:17:36;;;;;;;1.77;1.20;;;19.90;87.10;;;;;;5073747;28;20111;-67
2021/08/07 01:20:16;;;;;;;2.72;1.10;;;19.90;87.00;;;;;;5074003;28;20032;-66
2021/08/07 01:22:57;;;;;;;2.42;1.10;;;19.90;87.00;;;;;;5054844;28;20021;-67
2021/08/07 01:25:29;;;;;;;2.50;1.23;;;19.90;87.00;;;;;;5055824;28;20413;-67
2021/08/07 01:27:55;;;;;;;2.78;1.30;;;19.90;87.10;;;;;;5053750;28;20032;-67
2021/08/07 01:30:22;;;;;;;1.88;1.23;;;19.90;87.10;;;;;;5053814;28;20036;-66
2021/08/07 01:32:49;;;;;;;3.90;1.30;;;19.90;87.20;;;;;;5053795;28;20021;-66
2021/08/07 01:35:15;;;;;;;2.90;1.40;;;19.90;87.10;;;;;;5053402;28;20556;-67
2021/08/07 01:37:41;;;;;;;2.47;1.20;;;19.90;87.10;;;;;;5053760;28;20043;-66
2021/08/07 01:40:07;;;;;;;4.50;1.55;;;19.90;87.00;;;;;;5053611;28;20021;-66
2021/08/07 01:42:33;;;;;;;1.92;1.17;;;19.90;87.00;;;;;;5053442;28;20029;-66
2021/08/07 01:44:58;;;;;;;2.83;1.10;;;19.90;87.00;;;;;;5053123;28;20100;-66
2021/08/07 01:47:49;;;;;;;2.92;1.42;;;19.80;86.90;;;;;;5036922;28;20028;-66
2021/08/07 01:50:37;;;;;;;1.98;1.10;;;19.80;87.00;;;;;;5093672;28;20562;-68
2021/08/07 01:53:08;;;;;;;2.63;1.05;;;19.80;86.90;;;;;;5093567;28;20031;-66
2021/08/07 01:55:47;;;;;;;1.65;0.98;;;19.80;87.00;;;;;;5093219;28;20023;-66
2021/08/07 01:58:25;;;;;;;2.30;1.10;;;19.80;87.00;;;;;;5075594;28;20421;-66
2021/08/07 02:00:51;;;;;;;1.98;1.27;;;19.80;87.10;;;;;;5093431;28;20020;-66
2021/08/07 02:03:18;;;;;;;2.80;1.27;;;19.80;87.10;;;;;;5092807;28;20120;-65
2021/08/07 02:05:45;;;;;;;5.00;1.33;;;19.80;87.00;;;;;;5093065;28;20043;-67
2021/08/07 02:08:12;;;;;;;2.35;1.10;;;19.80;87.00;;;;;;5093246;28;20064;-67
2021/08/07 02:10:40;;;;;;;2.13;1.10;;;19.80;87.10;;;;;;5093377;28;20028;-66
2021/08/07 02:13:07;;;;;;;2.42;1.23;;;19.80;87.00;;;;;;5075336;28;20020;-66
2021/08/07 02:15:34;;;;;;;3.33;1.30;;;19.80;87.10;;;;;;5092504;28;20077;-66
2021/08/07 02:18:00;;;;;;;3.35;1.13;;;19.80;87.00;;;;;;5093223;28;20069;-67
2021/08/07 02:20:26;;;;;;;2.50;1.20;;;19.80;87.00;;;;;;5093083;28;20023;-66
2021/08/07 02:22:52;;;;;;;2.83;1.17;;;19.80;87.00;;;;;;5093073;28;20476;-66
2021/08/07 02:25:19;;;;;;;2.22;1.35;;;19.80;86.90;;;;;;5092724;28;20040;-68
2021/08/07 02:27:47;;;;;;;2.50;1.20;;;19.80;86.90;;;;;;5074692;28;20031;-69
2021/08/07 02:30:12;;;;;;;2.40;1.20;;;19.80;87.00;;;;;;5092872;28;20027;-66
2021/08/07 02:32:39;;;;;;;2.00;1.10;;;19.80;87.00;;;;;;5074714;28;20020;-66
2021/08/07 02:35:07;;;;;;;2.75;1.20;;;19.80;87.10;;;;;;5092139;28;20477;-66
2021/08/07 02:37:33;;;;;;;1.95;0.95;;;19.80;87.10;;;;;;5074549;28;20425;-69
2021/08/07 02:40:01;;;;;;;4.47;1.55;;;19.80;87.00;;;;;;5092812;28;20020;-67
2021/08/07 02:42:26;;;;;;;2.42;1.20;;;19.80;87.00;;;;;;5092597;28;20020;-67
2021/08/07 02:44:53;;;;;;;1.52;1.10;;;19.80;86.90;;;;;;5092227;28;20047;-67
2021/08/07 02:47:20;;;;;;;2.95;1.10;;;19.80;86.90;;;;;;5050874;28;20141;-67
2021/08/07 02:49:46;;;;;;;1.67;1.10;;;19.70;86.80;;;;;;5052205;28;20025;-66
2021/08/07 02:52:12;;;;;;;2.72;1.20;;;19.70;86.90;;;;;;5060870;28;20028;-67
2021/08/07 02:54:39;;;;;;;2.15;1.20;;;19.80;86.90;;;;;;5061489;28;20028;-67
2021/08/07 02:57:05;;;;;;;2.78;1.10;;;19.80;86.80;;;;;;5068265;28;20379;-67
2021/08/07 02:59:30;;;;;;;1.77;1.10;;;19.70;86.90;;;;;;5071632;28;20108;-66
2021/08/07 03:01:56;;;;;;;3.30;1.10;;;19.70;86.90;;;;;;5071789;28;20454;-66
2021/08/07 03:04:21;;;;;;;2.55;1.15;;;19.70;87.00;;;;;;5053033;28;20024;-66
2021/08/07 03:06:47;;;;;;;2.78;1.15;;;19.70;86.90;;;;;;5071834;28;20421;-66
2021/08/07 03:09:12;;;;;;;1.38;0.90;;;19.70;86.90;;;;;;5071575;28;20028;-66
2021/08/07 03:11:38;;;;;;;2.00;1.10;;;19.70;87.10;;;;;;5071830;28;20035;-66
2021/08/07 03:14:04;;;;;;;1.80;1.05;;;19.70;87.20;;;;;;5053816;28;20024;-67
2021/08/07 03:16:29;;;;;;;3.75;1.27;;;19.70;87.30;;;;;;5053385;28;20036;-67
2021/08/07 03:18:55;;;;;;;1.77;1.00;;;19.70;87.20;;;;;;5053787;28;20025;-67
2021/08/07 03:21:20;;;;;;;2.28;1.20;;;19.70;87.10;;;;;;5053741;28;20052;-67
2021/08/07 03:23:46;;;;;;;3.28;1.25;;;19.70;87.10;;;;;;5053409;28;20379;-66
2021/08/07 03:26:12;;;;;;;2.35;1.10;;;19.70;87.00;;;;;;5071324;28;20029;-66
2021/08/07 03:28:38;;;;;;;1.98;1.00;;;19.70;87.10;;;;;;5071517;28;20539;-67
2021/08/07 03:31:03;;;;;;;2.17;1.20;;;19.70;87.10;;;;;;5071808;28;20413;-67
2021/08/07 03:33:29;;;;;;;2.13;1.10;;;19.70;87.10;;;;;;5071478;28;20095;-66
2021/08/07 03:35:54;;;;;;;1.90;1.08;;;19.70;87.00;;;;;;5053134;28;20020;-67
2021/08/07 03:38:20;;;;;;;1.60;0.95;;;19.70;86.90;;;;;;5053412;28;20036;-67
2021/08/07 03:40:45;;;;;;;2.38;1.00;;;19.70;86.70;;;;;;5063580;28;20029;-66
2021/08/07 03:43:11;;;;;;;2.58;1.20;;;19.70;86.70;;;;;;5051336;28;20037;-67
2021/08/07 03:45:36;;;;;;;2.70;1.10;;;19.70;86.80;;;;;;5050303;28;20032;-67
2021/08/07 03:48:03;;;;;;;2.83;1.30;;;19.70;86.90;;;;;;5057087;28;20034;-67
2021/08/07 03:50:29;;;;;;;2.78;1.30;;;19.70;86.60;;;;;;5053176;28;20083;-66
2021/08/07 03:52:55;;;;;;;1.42;1.10;;;19.70;86.40;;;;;;5052257;28;20036;-67
2021/08/07 03:55:21;;;;;;;3.50;1.20;;;19.70;86.60;;;;;;5053243;28;20116;-66
2021/08/07 03:57:50;;;;;;;2.78;1.10;;;19.70;86.70;;;;;;5071683;28;20055;-66
2021/08/07 04:00:16;;;;;;;2.70;1.20;;;19.70;86.60;;;;;;5071439;28;20063;-66
2021/08/07 04:02:42;;;;;;;2.13;1.10;;;19.70;86.60;;;;;;5071502;28;20020;-66
2021/08/07 04:05:08;;;;;;;2.78;1.10;;;19.70;86.60;;;;;;5070422;28;20077;-66
2021/08/07 04:07:33;;;;;;;2.13;1.00;;;19.70;86.70;;;;;;5053315;28;20394;-67
2021/08/07 04:09:59;;;;;;;3.50;1.15;;;19.70;86.60;;;;;;5071412;28;20017;-67
2021/08/07 04:12:24;;;;;;;2.17;1.10;;;19.70;86.70;;;;;;5071317;28;20021;-67
2021/08/07 04:14:50;;;;;;;2.33;1.10;;;19.70;86.90;;;;;;5071062;28;20020;-66
2021/08/07 04:17:15;;;;;;;2.63;1.10;;;19.70;86.80;;;;;;5071157;28;20505;-67
2021/08/07 04:19:41;;;;;;;1.77;1.10;;;19.70;86.90;;;;;;5071183;28;20028;-66
2021/08/07 04:22:06;;;;;;;1.63;0.90;;;19.70;87.10;;;;;;5071308;28;20110;-67
2021/08/07 04:24:32;;;;;;;1.58;0.90;;;19.70;87.00;;;;;;5070973;28;20090;-67
2021/08/07 04:26:57;;;;;;;1.90;1.05;;;19.70;87.10;;;;;;5071170;28;20028;-67
2021/08/07 04:29:23;;;;;;;1.35;0.80;;;19.70;87.20;;;;;;5071059;28;20039;-66
2021/08/07 04:31:48;;;;;;;2.08;1.20;;;19.70;87.10;;;;;;5071189;28;20463;-67
2021/08/07 04:34:14;;;;;;;1.30;0.98;;;19.70;87.20;;;;;;5070985;28;20640;-68
2021/08/07 04:36:39;;;;;;;2.75;1.17;;;19.70;87.20;;;;;;5070966;28;20038;-66
2021/08/07 04:39:05;;;;;;;2.55;1.10;;;19.70;87.20;;;;;;5053147;28;20028;-66
2021/08/07 04:41:30;;;;;;;2.35;1.10;;;19.70;87.70;;;;;;5071107;28;20037;-66
2021/08/07 04:43:56;;;;;;;2.58;1.10;;;19.70;87.20;;;;;;5053096;28;20115;-66
2021/08/07 04:46:21;;;;;;;1.73;1.10;;;19.70;87.30;;;;;;5070640;28;20017;-66
2021/08/07 04:48:47;;;;;;;2.20;1.00;;;19.70;87.30;;;;;;5070854;28;20367;-66
2021/08/07 04:51:12;;;;;;;1.95;1.05;;;19.70;87.30;;;;;;5071006;28;20021;-66
2021/08/07 04:53:38;;;;;;;1.85;1.05;;;19.70;87.30;;;;;;5070846;28;20024;-66
2021/08/07 04:56:04;;;;;;;2.08;1.00;;;19.70;87.30;;;;;;5051709;28;20048;-66
2021/08/07 04:58:29;;;;;;;3.22;1.20;;;19.80;87.40;;;;;;5073841;28;20089;-67
2021/08/07 05:00:55;;;;;;;2.22;1.10;;;19.70;87.30;;;;;;5056575;28;20170;-67
2021/08/07 05:03:20;;;;;;;3.35;1.13;;;19.70;87.20;;;;;;5054305;28;20508;-66
2021/08/07 05:05:46;;;;;;;1.83;0.80;;;19.70;87.20;;;;;;5055595;28;20020;-67
2021/08/07 05:08:11;;;;;;;2.63;1.02;;;19.80;87.30;;;;;;5054940;28;20083;-67
2021/08/07 05:10:37;;;;;;;1.52;0.80;;;19.80;87.30;;;;;;5040202;28;20753;-67
2021/08/07 05:13:03;;;;;;;2.97;1.13;;;19.80;87.30;;;;;;5036555;28;20090;-67
2021/08/07 05:15:28;;;;;;;3.65;1.20;;;19.80;87.20;;;;;;5065476;28;20085;-68
2021/08/07 05:17:54;;;;;;;2.10;1.15;;;19.80;87.30;;;;;;5068232;28;20035;-67
2021/08/07 05:20:20;;;;;;;2.65;1.10;;;19.90;87.20;;;;;;5049831;28;20893;-69
2021/08/07 05:22:46;;;;;;;2.75;1.17;;;19.90;87.10;;;;;;5068382;28;20036;-68
2021/08/07 05:25:14;;;;;;;1.60;1.10;;;19.90;87.00;;;;;;5067870;28;20075;-68
2021/08/07 05:27:40;;;;;;;1.55;1.08;;;19.90;86.90;;;;;;5068204;28;20028;-67
2021/08/07 05:30:06;;;;;;;1.77;1.00;;;20.00;86.70;;;;;;5049570;28;20719;-68
2021/08/07 05:32:32;;;;;;;2.88;1.08;;;20.00;86.60;;;;;;5055531;28;20033;-67
2021/08/07 05:34:57;;;;;;;3.40;1.00;;;20.10;86.50;;;;;;5047351;28;20021;-67
2021/08/07 05:37:23;;;;;;;2.22;1.00;;;20.10;86.30;;;;;;5029516;28;20470;-67
2021/08/07 05:39:48;;;;;;;2.30;0.90;;;20.10;86.30;;;;;;5047128;28;20495;-69
2021/08/07 05:42:14;;;;;;;1.60;0.90;;;20.20;85.90;;;;;;5047641;28;20031;-67
2021/08/07 05:44:39;;;;;;;2.20;1.08;;;20.20;85.70;;;;;;5047220;28;20036;-70
2021/08/07 05:47:05;;;;;;;2.15;1.02;;;20.30;85.50;;;;;;5046762;28;20033;-67
2021/08/07 05:49:30;;;;;;;1.13;0.82;;;20.30;85.40;;;;;;5047577;28;20086;-67
2021/08/07 05:51:56;;;;;;;4.15;1.20;;;20.40;85.20;;;;;;5029530;28;20056;-67
2021/08/07 05:54:21;;;;;;;2.53;0.90;;;20.40;85.10;;;;;;5029427;28;20021;-69
2021/08/07 05:56:48;;;;;;;1.67;0.90;;;20.50;84.70;;;;;;5047006;28;20048;-68
2021/08/07 05:59:13;;;;;;;2.20;0.90;;;20.60;84.20;;;;;;5029066;28;20546;-68
2021/08/07 06:01:39;;;;;;;3.70;1.35;;;20.70;83.10;;;;;;5047067;28;20116;-66
2021/08/07 06:04:04;;;;;;;3.75;1.38;;;20.70;81.70;;;;;;5047052;28;20032;-68
2021/08/07 06:06:30;;;;;;;5.50;1.20;;;20.80;80.80;;;;;;5054049;28;20116;-68
2021/08/07 06:08:55;;;;;;;2.30;1.10;;;20.90;80.30;;;;;;5055316;28;20460;-69
2021/08/07 06:11:21;;;;;;;2.83;1.05;;;21.00;80.00;;;;;;5035559;28;20025;-67
2021/08/07 06:13:46;;;;;;;2.00;1.10;;;21.00;79.40;;;;;;5048210;28;20031;-67
2021/08/07 06:16:12;;;;;;;4.00;1.15;;;21.10;79.20;;;;;;5043966;28;20826;-67
2021/08/07 06:18:38;;;;;;;5.50;1.10;;;21.10;78.90;;;;;;5065396;28;20367;-68
2021/08/07 06:21:03;;;;;;;4.60;1.40;;;21.20;78.30;;;;;;5047238;28;20024;-66
2021/08/07 06:23:29;;;;;;;2.85;1.30;;;21.20;78.00;;;;;;5066675;28;20031;-66
2021/08/07 06:25:54;;;;;;;3.55;1.30;;;21.20;77.80;;;;;;5064536;28;20055;-67
2021/08/07 06:28:22;;;;;;;3.25;1.40;;;21.30;77.30;;;;;;5048616;28;20782;-68
2021/08/07 06:30:48;;;;;;;2.72;1.00;;;21.30;77.10;;;;;;5048765;28;20120;-66
2021/08/07 06:33:13;;;;;;;4.38;1.20;;;21.40;76.90;;;;;;5048135;28;20029;-66
2021/08/07 06:35:40;;;;;;;7.80;1.40;;;21.60;77.20;;;;;;5066665;28;20020;-67
2021/08/07 06:38:07;;;;;;;9.55;1.50;;;21.50;76.50;;;;;;5066489;28;20033;-66
2021/08/07 06:40:36;;;;;;;4.35;1.10;;;21.60;76.30;;;;;;5066636;28;20051;-67
2021/08/07 06:43:02;;;;;;;3.47;1.20;;;21.60;76.10;;;;;;5048639;28;20030;-69
2021/08/07 06:45:28;;;;;;;8.23;1.65;;;21.70;76.90;;;;;;5065848;28;20033;-67
2021/08/07 06:47:53;;;;;;;6.85;1.23;;;21.70;74.70;;;;;;5046986;28;20086;-67
2021/08/07 06:50:19;;;;;;;5.80;1.40;;;21.80;75.00;;;;;;5064600;28;20035;-66
2021/08/07 06:52:44;;;;;;;6.10;1.30;;;21.90;76.30;;;;;;5065815;28;20035;-67
2021/08/07 06:55:10;;;;;;;4.10;1.10;;;21.90;76.20;;;;;;5065552;28;20020;-66
2021/08/07 06:57:40;;;;;;;4.00;1.10;;;22.00;75.70;;;;;;5066032;28;20195;-67
2021/08/07 07:00:09;;;;;;;3.60;1.05;;;22.00;76.00;;;;;;5064218;28;20033;-68
2021/08/07 07:02:35;;;;;;;4.82;1.00;;;22.10;75.40;;;;;;5065867;28;20559;-67
2021/08/07 07:05:01;;;;;;;5.95;1.55;;;22.10;75.30;;;;;;5047992;28;20486;-67
2021/08/07 07:07:26;;;;;;;3.17;1.10;;;22.20;75.30;;;;;;5047730;28;20024;-66
2021/08/07 07:09:52;;;;;;;4.18;0.93;;;22.20;75.30;;;;;;5065746;28;20501;-67
2021/08/07 07:12:17;;;;;;;2.63;0.98;;;22.10;76.10;;;;;;5065692;28;20028;-68
2021/08/07 07:14:43;;;;;;;4.47;1.10;;;22.10;75.80;;;;;;5065402;28;20035;-67
2021/08/07 07:17:09;;;;;;;2.40;0.93;;;22.10;75.70;;;;;;5065591;28;20460;-67
2021/08/07 07:19:37;;;;;;;2.72;1.00;;;22.10;75.60;;;;;;5065722;28;20462;-65
2021/08/07 07:22:03;;;;;;;3.42;0.90;;;22.10;75.50;;;;;;5046714;28;20524;-67
2021/08/07 07:24:28;;;;;;;2.58;0.95;;;22.10;75.80;;;;;;5065476;28;20498;-67
2021/08/07 07:26:54;;;;;;;4.55;1.10;;;22.00;75.60;;;;;;5065795;28;20254;-66
2021/08/07 07:29:19;;;;;;;3.05;1.00;;;22.00;75.70;;;;;;5065514;28;20139;-67
2021/08/07 07:31:45;;;;;;;4.30;1.20;;;21.90;76.20;;;;;;5065566;28;20043;-67
2021/08/07 07:34:11;;;;;;;3.38;0.93;;;21.90;75.90;;;;;;5065860;28;20165;-67
2021/08/07 07:36:36;;;;;;;3.55;1.10;;;22.00;76.00;;;;;;5047561;28;20029;-67
2021/08/07 07:39:03;;;;;;;3.22;1.00;;;21.90;76.30;;;;;;5065391;28;20043;-67
2021/08/07 07:41:28;;;;;;;2.42;0.90;;;21.90;76.00;;;;;;5065618;28;20107;-67
2021/08/07 07:43:54;;;;;;;2.63;0.90;;;21.90;76.00;;;;;;5064009;28;20131;-67
2021/08/07 07:46:19;;;;;;;2.53;0.80;;;21.90;76.00;;;;;;5063780;28;20074;-69
2021/08/07 07:48:45;;;;;;;2.55;0.90;;;22.00;75.70;;;;;;5065203;28;20028;-67
2021/08/07 07:51:11;;;;;;;2.22;0.95;;;22.00;76.00;;;;;;5065548;28;20502;-67
2021/08/07 07:53:36;;;;;;;2.20;0.98;;;22.00;76.00;;;;;;5065300;28;20029;-67
2021/08/07 07:56:02;;;;;;;1.70;1.00;;;22.10;75.70;;;;;;5064934;28;20020;-67
2021/08/07 07:58:28;;;;;;;3.00;1.00;;;22.20;75.00;;;;;;5064947;28;20039;-67
2021/08/07 08:00:54;;;;;;;1.70;0.82;;;22.30;74.40;;;;;;5047267;28;20032;-66
2021/08/07 08:03:20;;;;;;;1.25;0.85;;;22.40;74.10;;;;;;5063623;28;20101;-67
2021/08/07 08:05:45;;;;;;;2.35;0.80;;;22.40;73.70;;;;;;5064888;28;20036;-67
2021/08/07 08:08:11;;;;;;;3.28;1.02;;;22.30;74.50;;;;;;5065228;28;20072;-68
2021/08/07 08:10:38;;;;;;;2.50;0.90;;;22.20;74.50;;;;;;5065399;28;20021;-67
2021/08/07 08:13:04;;;;;;;1.15;0.93;;;22.20;75.10;;;;;;5047221;28;20029;-67
2021/08/07 08:15:30;;;;;;;1.33;0.80;;;22.10;75.10;;;;;;5064566;28;20032;-67
2021/08/07 08:17:56;;;;;;;2.60;0.90;;;22.10;75.20;;;;;;5064103;28;20032;-66
2021/08/07 08:20:21;;;;;;;1.70;0.90;;;22.10;75.10;;;;;;5065176;28;20489;-67
2021/08/07 08:22:47;;;;;;;3.50;1.00;;;22.10;75.30;;;;;;5046797;28;20028;-67
2021/08/07 08:25:13;;;;;;;1.48;0.73;;;22.10;75.20;;;;;;5064568;28;20028;-67
2021/08/07 08:27:39;;;;;;;2.80;1.52;;;22.10;75.50;;;;;;5046826;28;20074;-67
2021/08/07 08:30:07;;;;;;;1.70;0.90;;;22.10;75.60;;;;;;5046864;28;20402;-67
2021/08/07 08:32:32;;;;;;;2.40;1.00;;;22.10;75.30;;;;;;5066527;28;20501;-67
2021/08/07 08:34:58;;;;;;;2.13;1.00;;;22.00;75.50;;;;;;5068524;28;20037;-67
2021/08/07 08:37:24;;;;;;;2.90;0.80;;;22.00;75.50;;;;;;5050570;28;20033;-68
2021/08/07 08:39:50;;;;;;;1.83;0.98;;;22.00;75.10;;;;;;5050645;28;20028;-68
2021/08/07 08:42:16;;;;;;;1.95;0.90;;;22.00;75.20;;;;;;5050472;28;20191;-66
2021/08/07 08:44:42;;;;;;;2.63;1.00;;;22.00;75.50;;;;;;5068286;28;20032;-69
2021/08/07 08:47:08;;;;;;;1.92;1.00;;;22.00;75.50;;;;;;5068295;28;20291;-67
2021/08/07 08:49:34;;;;;;;2.45;1.00;;;22.00;75.40;;;;;;5068350;28;20032;-67
2021/08/07 08:52:01;;;;;;;2.13;0.98;;;22.00;75.60;;;;;;5068246;28;20020;-67
2021/08/07 08:54:27;;;;;;;1.83;1.00;;;22.00;75.50;;;;;;5049674;28;20032;-67
2021/08/07 08:56:54;;;;;;;1.88;1.00;;;22.00;75.40;;;;;;5049973;28;20086;-68
2021/08/07 08:59:23;;;;;;;1.77;0.90;;;22.10;75.20;;;;;;5050128;28;20024;-68
2021/08/07 09:01:50;;;;;;;1.92;1.10;;;22.00;75.20;;;;;;5068299;28;20039;-69
2021/08/07 09:04:16;;;;;;;2.13;1.15;;;22.00;75.40;;;;;;5067857;28;20033;-66
2021/08/07 09:06:41;;;;;;;3.25;1.30;;;22.00;75.60;;;;;;5068085;28;20032;-67
2021/08/07 09:09:09;;;;;;;2.22;0.93;;;22.00;75.80;;;;;;5068034;28;20398;-67
2021/08/07 09:11:51;;;;;;;3.22;1.17;;;22.00;75.60;;;;;;5068133;28;20021;-69
2021/08/07 09:14:29;;;;;;;3.67;1.13;;;22.00;75.60;;;;;;5067798;28;20820;-66
2021/08/07 09:17:00;;;;;;;3.85;1.13;;;22.00;75.40;;;;;;5068197;28;20040;-67
2021/08/07 09:19:45;;;;;;;;;;;22.20;75.40;;;;;;5068318;28;20024;-69
2021/08/07 09:22:14;;;;;;;1.67;0.98;;;22.20;74.70;;;;;;5068128;28;19908;-67
2021/08/07 09:25:09;;;;;;;1.55;0.90;;;22.30;74.50;;;;;;5067577;28;20029;-69
2021/08/07 09:27:38;;;;;;;2.38;0.95;;;22.30;74.30;;;;;;5068105;28;20086;-68
2021/08/07 09:30:13;;;;;;;1.60;0.88;;;22.20;74.70;;;;;;5068071;28;20547;-67
2021/08/07 09:32:56;;;;;;;1.45;0.90;;;22.20;74.70;;;;;;5067684;28;20025;-70
2021/08/07 09:35:32;;;;;;;3.20;1.00;;;22.20;75.00;;;;;;5067435;28;20028;-67
2021/08/07 09:38:22;;;;;;;1.95;1.10;;;22.10;75.50;;;;;;5049366;28;20052;-67
2021/08/07 09:40:59;;;;;;;1.80;1.00;;;22.00;75.90;;;;;;5067597;28;20184;-66
2021/08/07 09:43:44;;;;;;;1.20;0.90;;;22.00;75.60;;;;;;5066559;28;20482;-66
2021/08/07 09:46:11;;;;;;;2.63;0.93;;;22.00;75.80;;;;;;5048861;28;20497;-66
2021/08/07 09:48:41;;;;;;;3.67;1.10;;;22.00;75.60;;;;;;5067458;28;20021;-67
2021/08/07 09:51:22;;;;;;;2.72;1.13;;;21.90;75.70;;;;;;5067365;28;20029;-67
2021/08/07 09:54:02;;;;;;;3.00;1.05;;;21.90;75.90;;;;;;5067487;28;20055;-66
2021/08/07 09:56:53;;;;;;;2.55;1.08;;;21.90;76.10;;;;;;5066808;28;20626;-68
2021/08/07 09:59:21;;;;;;;2.00;0.82;;;21.90;76.20;;;;;;5065552;28;20033;-66
2021/08/07 10:01:48;;;;;;;2.97;1.10;;;21.90;75.90;;;;;;5067244;28;20024;-69
2021/08/07 10:04:15;;;;;;;3.17;1.10;;;21.90;75.80;;;;;;5067244;28;20504;-67
2021/08/07 10:06:44;;;;;;;2.50;1.30;;;22.00;76.20;;;;;;5048947;28;20036;-67
2021/08/07 10:09:11;;;;;;;4.30;1.20;;;22.10;75.40;;;;;;5066996;28;20562;-67
2021/08/07 10:11:36;;;;;;;2.45;1.00;;;22.10;75.40;;;;;;5067005;28;20521;-67
2021/08/07 10:14:03;;;;;;;3.70;1.20;;;22.20;75.70;;;;;;5065627;28;20020;-66
2021/08/07 10:16:30;;;;;;;3.55;1.10;;;22.20;75.50;;;;;;5066318;28;20040;-67
2021/08/07 10:18:57;;;;;;;2.42;1.00;;;22.20;75.00;;;;;;5048947;28;20509;-66
2021/08/07 10:21:23;;;;;;;3.47;1.02;;;22.20;74.90;;;;;;5067013;28;20233;-67
2021/08/07 10:23:51;;;;;;;2.33;0.90;;;22.10;74.90;;;;;;5048694;28;20126;-67
2021/08/07 10:26:20;;;;;;;2.35;1.00;;;22.00;74.90;;;;;;5048620;28;20028;-66
2021/08/07 10:28:48;;;;;;;3.38;1.10;;;22.00;75.10;;;;;;5048650;28;20441;-67
2021/08/07 10:31:19;;;;;;;1.67;1.00;;;22.00;75.20;;;;;;5066469;28;20265;-67
2021/08/07 10:33:46;;;;;;;;;;;22.00;75.30;;;;;;5066987;28;20024;-67
2021/08/07 10:36:12;;;;;;;3.10;1.10;;;22.00;75.30;;;;;;5066127;28;19948;-67
2021/08/07 10:38:38;;;;;;;2.50;1.15;;;22.00;75.50;;;;;;5066254;28;20036;-67
2021/08/07 10:41:05;;;;;;;2.55;1.20;;;22.10;75.80;;;;;;5066310;28;20028;-67
2021/08/07 10:43:35;;;;;;;2.13;1.10;;;22.20;75.30;;;;;;5066348;28;20029;-67
2021/08/07 10:46:04;;;;;;;3.00;1.20;;;22.20;75.50;;;;;;5047666;28;20394;-68
2021/08/07 10:48:37;;;;;;;3.35;1.20;;;22.20;74.80;;;;;;5047875;28;20032;-68
2021/08/07 10:51:27;;;;;;;2.28;1.08;;;22.10;74.90;;;;;;5048075;28;20093;-67
2021/08/07 10:54:00;;;;;;;3.63;1.25;;;22.10;75.20;;;;;;5058138;28;20043;-67
2021/08/07 10:56:28;;;;;;;1.23;1.00;;;22.20;75.40;;;;;;5065579;28;20343;-66
2021/08/07 10:59:15;;;;;;;3.05;1.30;;;22.20;75.00;;;;;;5065874;28;20467;-67
2021/08/07 11:01:42;;;;;;;3.60;1.15;;;22.20;75.20;;;;;;5065704;28;20058;-66
2021/08/07 11:04:46;;;;;;;3.47;1.27;;;22.20;75.10;;;;;;5059291;28;20029;-68
2021/08/07 11:07:18;;;;;;;4.57;1.20;;;22.20;74.70;;;;;;5037470;28;20043;-67
2021/08/07 11:09:59;;;;;;;2.72;1.10;;;22.20;75.10;;;;;;5055050;28;20040;-67
2021/08/07 11:12:25;;;;;;;4.20;1.38;;;22.10;75.10;;;;;;5051906;28;20280;-66
2021/08/07 11:14:56;;;;;;;4.28;1.15;;;22.10;75.10;;;;;;5053999;28;20582;-69
2021/08/07 11:17:28;;;;;;;6.50;1.10;;;22.20;75.20;;;;;;5076787;28;20445;-67
2021/08/07 11:20:14;;;;;;;2.00;1.02;;;22.10;75.30;;;;;;5043288;28;20024;-67
2021/08/07 11:22:41;;;;;;;3.00;1.10;;;22.10;75.30;;;;;;5047169;28;20113;-66
2021/08/07 11:25:16;;;;;;;3.90;1.42;;;22.20;75.40;;;;;;5064888;28;20029;-66
2021/08/07 11:27:49;;;;;;;1.63;1.10;;;22.20;75.30;;;;;;5032238;28;20415;-67
2021/08/07 11:30:31;;;;;;;5.40;1.20;;;22.30;75.20;;;;;;5047078;28;20074;-65
2021/08/07 11:32:56;;;;;;;3.22;1.20;;;22.30;75.10;;;;;;5058140;28;20028;-66
2021/08/07 11:35:50;;;;;;;4.00;1.13;;;22.30;74.90;;;;;;5056450;28;20017;-66
2021/08/07 11:38:25;;;;;;;3.80;1.17;;;22.40;75.00;;;;;;5036057;28;20115;-66
2021/08/07 11:40:59;;;;;;;6.10;1.60;;;22.40;74.80;;;;;;5054750;28;20078;-68
2021/08/07 11:43:29;;;;;;;2.22;1.10;;;22.40;75.00;;;;;;5057167;28;20021;-68
2021/08/07 11:45:54;;;;;;;2.78;1.13;;;22.40;75.00;;;;;;5067660;28;20090;-68
2021/08/07 11:48:34;;;;;;;6.10;1.40;;;22.30;74.90;;;;;;5058920;28;20020;-68
2021/08/07 11:51:11;;;;;;;9.23;1.33;;;22.30;74.90;;;;;;5068430;28;20025;-68
2021/08/07 11:53:39;;;;;;;7.15;1.40;;;22.30;75.00;;;;;;5070797;28;20024;-68
2021/08/07 11:56:13;;;;;;;3.10;1.40;;;22.30;74.80;;;;;;5068200;28;20037;-68
2021/08/07 11:58:46;;;;;;;5.00;1.25;;;22.30;74.90;;;;;;5049259;28;20031;-68
2021/08/07 12:01:12;;;;;;;3.15;1.30;;;22.30;74.80;;;;;;5069141;28;20119;-70
2021/08/07 12:03:42;;;;;;;3.40;1.30;;;22.30;75.10;;;;;;5052163;28;20518;-66
2021/08/07 12:06:08;;;;;;;4.57;1.33;;;22.40;75.10;;;;;;5048461;28;20033;-67
2021/08/07 12:08:34;;;;;;;3.78;1.38;;;22.40;75.40;;;;;;5060734;28;20024;-67
2021/08/07 12:11:05;;;;;;;6.05;1.50;;;22.40;75.30;;;;;;5057961;28;20775;-66
2021/08/07 12:13:35;;;;;;;5.55;1.30;;;22.40;75.60;;;;;;5033011;28;20056;-67
2021/08/07 12:16:06;;;;;;;8.60;1.45;;;22.30;76.00;;;;;;5046845;28;20413;-74
2021/08/07 12:18:48;;;;;;;5.60;1.38;;;22.30;77.00;;;;;;5066341;28;20052;-72
2021/08/07 12:21:24;;;;;;;7.05;1.30;;;22.40;76.10;;;;;;5068893;28;20043;-71
2021/08/07 12:23:58;;;;;;;5.05;1.23;;;22.50;76.00;;;;;;5068409;28;20028;-70
2021/08/07 12:26:25;;;;;;;5.53;1.17;;;22.40;76.40;;;;;;5059347;28;20163;-72
2021/08/07 12:29:03;;;;;;;5.65;1.52;;;22.50;75.80;;;;;;5068775;28;20430;-72
2021/08/07 12:31:51;;;;;;;7.75;1.55;;;22.50;75.50;;;;;;5067472;28;20081;-74
2021/08/07 12:34:19;;;;;;;6.15;1.65;;;22.60;75.20;;;;;;5050963;28;20027;-73
2021/08/07 12:36:57;;;;;;;6.13;1.38;;;22.50;75.30;;;;;;5044273;28;20032;-74
2021/08/07 12:39:23;;;;;;;6.75;1.42;;;22.50;75.20;;;;;;5038661;28;20035;-71
2021/08/07 12:41:49;;;;;;;6.50;1.80;;;22.60;75.10;;;;;;5061482;28;20035;-73
2021/08/07 12:44:28;;;;;;;4.32;1.60;;;22.60;74.80;;;;;;5050105;28;20903;-70
2021/08/07 12:46:56;;;;;;;6.18;1.52;;;22.70;74.80;;;;;;5068170;28;20873;-69
2021/08/07 12:49:35;;;;;;;7.20;1.40;;;22.70;74.70;;;;;;5048416;28;20518;-71
2021/08/07 12:52:03;;;;;;;7.32;1.63;;;22.60;74.70;;;;;;5048429;28;20029;-73
2021/08/07 12:54:29;;;;;;;4.35;1.23;;;22.60;74.70;;;;;;5053615;28;20032;-70